sensor_id;sensor_type;location;lat;lon;timestamp;temperature;humidity
26182;DHT22;13927;51.534;11.866;2023-03-23T03:50:18;12.50;99.90
26182;DHT22;13927;51.534;11.866;2023-03-23T03:52:43;12.50;99.90
26182;DHT22;13927;51.534;11.866;2023-03-23T03:55:09;12.50;99.90
26182;DHT22;13927;51.534;11.866;2023-03-23T03:57:35;12.50;99.90
26182;DHT22;13927;51.534;11.866;2023-03-23T04:00:04;12.60;99.90
26182;DHT22;13927;51.534;11.866;2023-03-23T04:02:41;12.60;99.90
26182;DHT22;13927;51.534;11.866;2023-03-23T04:05:08;12.70;99.90
26182;DHT22;13927;51.534;11.866;2023-03-23T04:07:36;12.70;99.90
26182;DHT22;13927;51.534;11.866;2023-03-23T04:10:04;12.70;99.90
26182;DHT22;13927;51.534;11.866;2023-03-23T04:12:32;12.70;99.90
26182;DHT22;13927;51.534;11.866;2023-03-23T04:14:58;12.80;99.90
26182;DHT22;13927;51.534;11.866;2023-03-23T04:17:27;12.80;99.90
26182;DHT22;13927;51.534;11.866;2023-03-23T04:19:53;12.90;99.90
26182;DHT22;13927;51.534;11.866;2023-03-23T04:22:22;13.00;99.90
26182;DHT22;13927;51.534;11.866;2023-03-23T04:24:58;13.10;99.90
26182;DHT22;13927;51.534;11.866;2023-03-23T04:27:25;13.10;99.90
26182;DHT22;13927;51.534;11.866;2023-03-23T04:29:56;13.10;99.90
26182;DHT22;13927;51.534;11.866;2023-03-23T04:32:23;13.10;99.90
26182;DHT22;13927;51.534;11.866;2023-03-23T04:34:56;13.10;99.90
26182;DHT22;13927;51.534;11.866;2023-03-23T04:37:25;13.10;99.90
26182;DHT22;13927;51.534;11.866;2023-03-23T04:39:54;13.10;99.90
26182;DHT22;13927;51.534;11.866;2023-03-23T04:42:41;13.10;99.90
26182;DHT22;13927;51.534;11.866;2023-03-23T04:45:10;13.10;99.90
26182;DHT22;13927;51.534;11.866;2023-03-23T04:47:47;13.00;99.90
26182;DHT22;13927;51.534;11.866;2023-03-23T04:50:19;12.90;99.90
26182;DHT22;13927;51.534;11.866;2023-03-23T04:52:46;12.90;99.90
26182;DHT22;13927;51.534;11.866;2023-03-23T04:55:12;12.90;99.90
26182;DHT22;13927;51.534;11.866;2023-03-23T04:57:38;12.90;99.90
26182;DHT22;13927;51.534;11.866;2023-03-23T05:00:05;13.00;99.90
26182;DHT22;13927;51.534;11.866;2023-03-23T05:02:35;13.10;99.90
26182;DHT22;13927;51.534;11.866;2023-03-23T05:05:01;13.20;99.90
26182;DHT22;13927;51.534;11.866;2023-03-23T05:07:29;13.30;99.90
26182;DHT22;13927;51.534;11.866;2023-03-23T05:09:55;13.30;99.90
26182;DHT22;13927;51.534;11.866;2023-03-23T05:12:21;13.30;99.90
26182;DHT22;13927;51.534;11.866;2023-03-23T05:14:46;13.30;99.90
26182;DHT22;13927;51.534;11.866;2023-03-23T05:17:12;13.40;99.90
26182;DHT22;13927;51.534;11.866;2023-03-23T05:19:42;13.40;99.90
26182;DHT22;13927;51.534;11.866;2023-03-23T05:22:10;13.30;99.90
26182;DHT22;13927;51.534;11.866;2023-03-23T05:24:38;13.30;99.90
26182;DHT22;13927;51.534;11.866;2023-03-23T05:27:03;13.30;99.90
26182;DHT22;13927;51.534;11.866;2023-03-23T05:29:29;13.20;99.90
26182;DHT22;13927;51.534;11.866;2023-03-23T05:31:58;13.10;99.90
26182;DHT22;13927;51.534;11.866;2023-03-23T05:34:25;13.10;99.90
26182;DHT22;13927;51.534;11.866;2023-03-23T05:36:51;13.10;99.90
26182;DHT22;13927;51.534;11.866;2023-03-23T05:39:18;13.10;99.90
26182;DHT22;13927;51.534;11.866;2023-03-23T05:41:44;13.10;99.90
26182;DHT22;13927;51.534;11.866;2023-03-23T05:44:10;13.10;99.90
26182;DHT22;13927;51.534;11.866;2023-03-23T05:46:35;13.00;99.90
26182;DHT22;13927;51.534;11.866;2023-03-23T05:49:01;13.00;99.90
26182;DHT22;13927;51.534;11.866;2023-03-23T05:51:27;12.90;99.90
26182;DHT22;13927;51.534;11.866;2023-03-23T05:53:53;12.90;99.90
26182;DHT22;13927;51.534;11.866;2023-03-23T05:56:18;12.80;99.90
26182;DHT22;13927;51.534;11.866;2023-03-23T05:58:44;12.80;99.90
26182;DHT22;13927;51.534;11.866;2023-03-23T06:01:10;12.70;99.90
26182;DHT22;13927;51.534;11.866;2023-03-23T06:03:42;12.70;99.90
26182;DHT22;13927;51.534;11.866;2023-03-23T06:06:16;12.70;99.90
26182;DHT22;13927;51.534;11.866;2023-03-23T06:08:43;12.60;99.90
26182;DHT22;13927;51.534;11.866;2023-03-23T06:11:09;12.60;99.90
26182;DHT22;13927;51.534;11.866;2023-03-23T06:13:39;12.60;99.90
26182;DHT22;13927;51.534;11.866;2023-03-23T06:16:05;12.60;99.90
26182;DHT22;13927;51.534;11.866;2023-03-23T06:18:34;12.50;99.90
26182;DHT22;13927;51.534;11.866;2023-03-23T06:21:04;12.50;99.90
26182;DHT22;13927;51.534;11.866;2023-03-23T06:23:31;12.50;99.90
26182;DHT22;13927;51.534;11.866;2023-03-23T06:26:00;12.50;99.90
26182;DHT22;13927;51.534;11.866;2023-03-23T06:28:28;12.40;99.90
26182;DHT22;13927;51.534;11.866;2023-03-23T06:30:54;12.40;99.90
26182;DHT22;13927;51.534;11.866;2023-03-23T06:33:20;12.30;99.90
26182;DHT22;13927;51.534;11.866;2023-03-23T06:35:46;12.30;99.90
26182;DHT22;13927;51.534;11.866;2023-03-23T06:41:36;12.20;99.90
26182;DHT22;13927;51.534;11.866;2023-03-23T06:44:01;12.20;99.90
26182;DHT22;13927;51.534;11.866;2023-03-23T06:46:27;12.10;99.90
26182;DHT22;13927;51.534;11.866;2023-03-23T06:48:53;12.10;99.90
26182;DHT22;13927;51.534;11.866;2023-03-23T06:51:19;12.10;99.90
26182;DHT22;13927;51.534;11.866;2023-03-23T06:53:45;12.10;99.90
26182;DHT22;13927;51.534;11.866;2023-03-23T06:56:11;12.10;99.90
26182;DHT22;13927;51.534;11.866;2023-03-23T06:58:38;12.10;99.90
26182;DHT22;13927;51.534;11.866;2023-03-23T07:01:04;12.10;99.90
26182;DHT22;13927;51.534;11.866;2023-03-23T07:03:33;12.10;99.90
26182;DHT22;13927;51.534;11.866;2023-03-23T07:06:00;12.10;99.90
26182;DHT22;13927;51.534;11.866;2023-03-23T07:08:27;12.20;99.90
26182;DHT22;13927;51.534;11.866;2023-03-23T07:10:53;12.20;99.90
26182;DHT22;13927;51.534;11.866;2023-03-23T07:13:20;12.20;99.90
26182;DHT22;13927;51.534;11.866;2023-03-23T07:15:46;12.20;99.90
26182;DHT22;13927;51.534;11.866;2023-03-23T07:18:14;12.20;99.90
26182;DHT22;13927;51.534;11.866;2023-03-23T07:20:49;12.20;99.90
26182;DHT22;13927;51.534;11.866;2023-03-23T07:23:16;12.20;99.90
26182;DHT22;13927;51.534;11.866;2023-03-23T07:25:42;12.30;99.90
26182;DHT22;13927;51.534;11.866;2023-03-23T07:28:10;12.40;99.90
26182;DHT22;13927;51.534;11.866;2023-03-23T07:30:37;12.40;99.90
26182;DHT22;13927;51.534;11.866;2023-03-23T07:33:06;12.40;99.90
26182;DHT22;13927;51.534;11.866;2023-03-23T07:35:32;12.40;99.90
26182;DHT22;13927;51.534;11.866;2023-03-23T07:37:59;12.40;99.90
26182;DHT22;13927;51.534;11.866;2023-03-23T07:40:25;12.50;99.90
26182;DHT22;13927;51.534;11.866;2023-03-23T07:42:55;12.50;99.90
26182;DHT22;13927;51.534;11.866;2023-03-23T07:45:37;12.50;99.90
26182;DHT22;13927;51.534;11.866;2023-03-23T07:48:02;12.60;99.90
26182;DHT22;13927;51.534;11.866;2023-03-23T07:50:28;12.60;99.90
26182;DHT22;13927;51.534;11.866;2023-03-23T07:52:54;12.60;99.90
26182;DHT22;13927;51.534;11.866;2023-03-23T07:55:24;12.60;99.90
26182;DHT22;13927;51.534;11.866;2023-03-23T07:57:52;12.70;99.90
26182;DHT22;13927;51.534;11.866;2023-03-23T08:00:20;12.70;99.90
26182;DHT22;13927;51.534;11.866;2023-03-23T08:02:52;12.80;99.90
26182;DHT22;13927;51.534;11.866;2023-03-23T08:05:23;12.90;99.90
26182;DHT22;13927;51.534;11.866;2023-03-23T08:07:52;13.00;99.90
26182;DHT22;13927;51.534;11.866;2023-03-23T08:10:20;13.20;99.90
26182;DHT22;13927;51.534;11.866;2023-03-23T08:12:50;13.50;99.90
26182;DHT22;13927;51.534;11.866;2023-03-23T08:15:18;13.60;99.90
26182;DHT22;13927;51.534;11.866;2023-03-23T08:17:44;13.80;99.90
26182;DHT22;13927;51.534;11.866;2023-03-23T08:20:10;14.00;99.90
26182;DHT22;13927;51.534;11.866;2023-03-23T08:22:45;14.10;99.90
26182;DHT22;13927;51.534;11.866;2023-03-23T08:25:14;14.10;99.90
26182;DHT22;13927;51.534;11.866;2023-03-23T08:27:42;14.10;99.90
26182;DHT22;13927;51.534;11.866;2023-03-23T08:30:10;14.10;99.90
26182;DHT22;13927;51.534;11.866;2023-03-23T08:32:37;14.10;99.90
26182;DHT22;13927;51.534;11.866;2023-03-23T08:35:03;14.20;99.90
26182;DHT22;13927;51.534;11.866;2023-03-23T08:37:34;14.30;99.90
26182;DHT22;13927;51.534;11.866;2023-03-23T08:40:00;14.50;99.90
26182;DHT22;13927;51.534;11.866;2023-03-23T08:42:32;14.70;99.90
26182;DHT22;13927;51.534;11.866;2023-03-23T08:44:58;14.80;99.90
26182;DHT22;13927;51.534;11.866;2023-03-23T08:47:24;15.10;99.90
26182;DHT22;13927;51.534;11.866;2023-03-23T08:49:50;15.50;99.90
26182;DHT22;13927;51.534;11.866;2023-03-23T08:52:18;15.60;99.90
26182;DHT22;13927;51.534;11.866;2023-03-23T08:54:47;15.60;99.90
26182;DHT22;13927;51.534;11.866;2023-03-23T08:57:13;15.20;99.90
26182;DHT22;13927;51.534;11.866;2023-03-23T08:59:43;14.90;99.90
26182;DHT22;13927;51.534;11.866;2023-03-23T09:02:09;14.70;99.90
26182;DHT22;13927;51.534;11.866;2023-03-23T09:04:35;14.60;99.90
26182;DHT22;13927;51.534;11.866;2023-03-23T09:07:02;14.50;99.90
26182;DHT22;13927;51.534;11.866;2023-03-23T09:09:28;14.40;99.90
26182;DHT22;13927;51.534;11.866;2023-03-23T09:11:53;14.50;99.90
26182;DHT22;13927;51.534;11.866;2023-03-23T09:14:19;14.50;99.90
26182;DHT22;13927;51.534;11.866;2023-03-23T09:16:45;14.60;99.90
26182;DHT22;13927;51.534;11.866;2023-03-23T09:19:10;14.70;99.90
26182;DHT22;13927;51.534;11.866;2023-03-23T09:21:37;14.80;99.90
26182;DHT22;13927;51.534;11.866;2023-03-23T09:24:03;14.90;99.90
26182;DHT22;13927;51.534;11.866;2023-03-23T09:26:30;14.90;99.90
26182;DHT22;13927;51.534;11.866;2023-03-23T09:28:56;14.80;99.90
26182;DHT22;13927;51.534;11.866;2023-03-23T09:31:23;14.70;99.90
26182;DHT22;13927;51.534;11.866;2023-03-23T09:33:52;14.70;99.90
26182;DHT22;13927;51.534;11.866;2023-03-23T09:36:22;14.80;99.90
26182;DHT22;13927;51.534;11.866;2023-03-23T09:38:48;14.80;99.90
26182;DHT22;13927;51.534;11.866;2023-03-23T09:44:21;14.80;99.90
26182;DHT22;13927;51.534;11.866;2023-03-23T09:47:08;14.80;99.90
26182;DHT22;13927;51.534;11.866;2023-03-23T09:49:52;14.80;99.90
26182;DHT22;13927;51.534;11.866;2023-03-23T09:52:20;14.90;99.90
26182;DHT22;13927;51.534;11.866;2023-03-23T09:54:53;15.00;99.90
26182;DHT22;13927;51.534;11.866;2023-03-23T09:57:36;15.00;99.90
26182;DHT22;13927;51.534;11.866;2023-03-23T10:00:14;15.00;99.90
26182;DHT22;13927;51.534;11.866;2023-03-23T10:05:41;15.00;99.90
26182;DHT22;13927;51.534;11.866;2023-03-23T10:08:12;15.00;99.90
26182;DHT22;13927;51.534;11.866;2023-03-23T10:16:18;15.10;99.90
26182;DHT22;13927;51.534;11.866;2023-03-23T10:18:51;15.20;99.90
26182;DHT22;13927;51.534;11.866;2023-03-23T10:21:50;15.30;99.90
26182;DHT22;13927;51.534;11.866;2023-03-23T10:24:23;15.50;99.90
26182;DHT22;13927;51.534;11.866;2023-03-23T10:29:28;15.40;99.90
26182;DHT22;13927;51.534;11.866;2023-03-23T10:32:03;15.60;99.90
26182;DHT22;13927;51.534;11.866;2023-03-23T10:34:45;15.60;99.90
26182;DHT22;13927;51.534;11.866;2023-03-23T10:37:25;15.60;99.90
26182;DHT22;13927;51.534;11.866;2023-03-23T10:39:54;15.80;99.90
26182;DHT22;13927;51.534;11.866;2023-03-23T10:42:26;15.90;99.90
26182;DHT22;13927;51.534;11.866;2023-03-23T10:44:53;16.00;99.90
26182;DHT22;13927;51.534;11.866;2023-03-23T10:47:21;16.10;99.90
26182;DHT22;13927;51.534;11.866;2023-03-23T10:49:49;16.20;99.90
26182;DHT22;13927;51.534;11.866;2023-03-23T10:52:29;16.20;99.90
26182;DHT22;13927;51.534;11.866;2023-03-23T10:55:00;16.10;99.90
26182;DHT22;13927;51.534;11.866;2023-03-23T10:57:32;15.90;99.90
26182;DHT22;13927;51.534;11.866;2023-03-23T11:00:03;15.90;99.90
26182;DHT22;13927;51.534;11.866;2023-03-23T11:03:48;15.90;99.90
26182;DHT22;13927;51.534;11.866;2023-03-23T11:05:43;15.80;99.90
26182;DHT22;13927;51.534;11.866;2023-03-23T11:08:14;15.70;99.90
26182;DHT22;13927;51.534;11.866;2023-03-23T11:11:28;15.50;99.90
26182;DHT22;13927;51.534;11.866;2023-03-23T11:13:42;15.50;99.90
26182;DHT22;13927;51.534;11.866;2023-03-23T11:16:09;15.50;99.90
26182;DHT22;13927;51.534;11.866;2023-03-23T11:18:41;15.50;99.90
26182;DHT22;13927;51.534;11.866;2023-03-23T11:21:11;15.70;99.90
26182;DHT22;13927;51.534;11.866;2023-03-23T11:23:41;15.80;99.90
26182;DHT22;13927;51.534;11.866;2023-03-23T11:26:13;15.80;99.90
26182;DHT22;13927;51.534;11.866;2023-03-23T11:29:09;15.90;99.90
26182;DHT22;13927;51.534;11.866;2023-03-23T11:31:41;15.70;99.90
26182;DHT22;13927;51.534;11.866;2023-03-23T11:34:21;15.80;99.90
26182;DHT22;13927;51.534;11.866;2023-03-23T11:36:51;15.90;99.90
26182;DHT22;13927;51.534;11.866;2023-03-23T11:39:29;16.20;99.90
26182;DHT22;13927;51.534;11.866;2023-03-23T11:42:11;16.40;99.90
26182;DHT22;13927;51.534;11.866;2023-03-23T11:44:42;16.70;99.90
26182;DHT22;13927;51.534;11.866;2023-03-23T11:47:22;17.10;99.90
26182;DHT22;13927;51.534;11.866;2023-03-23T11:50:01;17.20;99.90
26182;DHT22;13927;51.534;11.866;2023-03-23T11:58:42;16.90;99.90
26182;DHT22;13927;51.534;11.866;2023-03-23T12:07:06;17.00;99.90
26182;DHT22;13927;51.534;11.866;2023-03-23T12:09:55;17.00;99.90
26182;DHT22;13927;51.534;11.866;2023-03-23T12:12:37;16.90;99.90
26182;DHT22;13927;51.534;11.866;2023-03-23T12:15:22;17.00;99.90
26182;DHT22;13927;51.534;11.866;2023-03-23T12:17:58;17.10;99.90
26182;DHT22;13927;51.534;11.866;2023-03-23T12:26:18;16.60;99.90
26182;DHT22;13927;51.534;11.866;2023-03-23T12:34:40;16.20;99.90
26182;DHT22;13927;51.534;11.866;2023-03-23T12:37:13;16.20;99.90
26182;DHT22;13927;51.534;11.866;2023-03-23T12:40:06;16.10;99.90
26182;DHT22;13927;51.534;11.866;2023-03-23T12:42:46;16.00;99.90
26182;DHT22;13927;51.534;11.866;2023-03-23T12:45:18;15.90;99.90
26182;DHT22;13927;51.534;11.866;2023-03-23T12:47:55;15.80;99.90
26182;DHT22;13927;51.534;11.866;2023-03-23T12:53:06;15.70;99.90
26182;DHT22;13927;51.534;11.866;2023-03-23T12:56:23;15.70;99.90
26182;DHT22;13927;51.534;11.866;2023-03-23T12:58:41;15.60;99.90
26182;DHT22;13927;51.534;11.866;2023-03-23T13:01:11;15.50;99.90
26182;DHT22;13927;51.534;11.866;2023-03-23T13:03:54;15.40;99.90
26182;DHT22;13927;51.534;11.866;2023-03-23T13:06:29;15.30;99.90
26182;DHT22;13927;51.534;11.866;2023-03-23T13:09:09;15.20;99.90
26182;DHT22;13927;51.534;11.866;2023-03-23T13:11:54;15.20;99.90
26182;DHT22;13927;51.534;11.866;2023-03-23T13:14:29;15.30;99.90
26182;DHT22;13927;51.534;11.866;2023-03-23T13:17:22;15.40;99.90
26182;DHT22;13927;51.534;11.866;2023-03-23T13:20:11;15.40;99.90
26182;DHT22;13927;51.534;11.866;2023-03-23T13:25:48;15.40;99.90
26182;DHT22;13927;51.534;11.866;2023-03-23T13:31:28;15.40;99.90
26182;DHT22;13927;51.534;11.866;2023-03-23T13:36:38;15.40;99.90
26182;DHT22;13927;51.534;11.866;2023-03-23T13:39:06;15.60;99.90
26182;DHT22;13927;51.534;11.866;2023-03-23T13:41:46;16.00;99.90
26182;DHT22;13927;51.534;11.866;2023-03-23T13:44:23;16.30;99.90
26182;DHT22;13927;51.534;11.866;2023-03-23T13:46:56;16.60;99.90
26182;DHT22;13927;51.534;11.866;2023-03-23T13:49:31;17.10;99.90
26182;DHT22;13927;51.534;11.866;2023-03-23T13:51:59;17.40;99.90
26182;DHT22;13927;51.534;11.866;2023-03-23T13:54:43;17.30;99.90
26182;DHT22;13927;51.534;11.866;2023-03-23T13:57:33;17.20;99.90
26182;DHT22;13927;51.534;11.866;2023-03-23T14:00:26;17.40;99.90
26182;DHT22;13927;51.534;11.866;2023-03-23T14:03:02;17.50;99.90
26182;DHT22;13927;51.534;11.866;2023-03-23T14:05:32;17.60;99.90
26182;DHT22;13927;51.534;11.866;2023-03-23T14:08:02;17.60;99.90
26182;DHT22;13927;51.534;11.866;2023-03-23T14:10:41;17.40;99.90
26182;DHT22;13927;51.534;11.866;2023-03-23T14:13:11;17.20;99.90
26182;DHT22;13927;51.534;11.866;2023-03-23T14:15:45;16.90;99.90
26182;DHT22;13927;51.534;11.866;2023-03-23T14:18:21;16.70;99.90
26182;DHT22;13927;51.534;11.866;2023-03-23T14:20:47;16.50;99.90
26182;DHT22;13927;51.534;11.866;2023-03-23T14:23:17;16.50;99.90
26182;DHT22;13927;51.534;11.866;2023-03-23T14:25:44;16.20;99.90
26182;DHT22;13927;51.534;11.866;2023-03-23T14:28:20;16.10;99.90
26182;DHT22;13927;51.534;11.866;2023-03-23T14:30:48;16.00;99.90
26182;DHT22;13927;51.534;11.866;2023-03-23T14:33:17;15.90;99.90
26182;DHT22;13927;51.534;11.866;2023-03-23T14:35:45;15.80;99.90
26182;DHT22;13927;51.534;11.866;2023-03-23T14:38:21;15.70;99.90
26182;DHT22;13927;51.534;11.866;2023-03-23T14:40:50;15.70;99.90
26182;DHT22;13927;51.534;11.866;2023-03-23T14:43:17;15.70;99.90
26182;DHT22;13927;51.534;11.866;2023-03-23T14:45:47;15.70;99.90
26182;DHT22;13927;51.534;11.866;2023-03-23T14:48:19;15.60;99.90
26182;DHT22;13927;51.534;11.866;2023-03-23T14:50:50;15.60;99.90
26182;DHT22;13927;51.534;11.866;2023-03-23T14:53:21;15.60;99.90
26182;DHT22;13927;51.534;11.866;2023-03-23T14:55:50;15.60;99.90
26182;DHT22;13927;51.534;11.866;2023-03-23T14:58:19;15.60;99.90
26182;DHT22;13927;51.534;11.866;2023-03-23T15:00:57;15.80;99.90
26182;DHT22;13927;51.534;11.866;2023-03-23T15:03:25;16.20;99.90
26182;DHT22;13927;51.534;11.866;2023-03-23T15:05:54;16.10;99.90
26182;DHT22;13927;51.534;11.866;2023-03-23T15:08:32;15.90;99.90
26182;DHT22;13927;51.534;11.866;2023-03-23T15:11:21;15.80;99.90
26182;DHT22;13927;51.534;11.866;2023-03-23T15:13:48;16.00;99.90
26182;DHT22;13927;51.534;11.866;2023-03-23T15:16:20;16.50;99.90
26182;DHT22;13927;51.534;11.866;2023-03-23T15:18:49;16.90;99.90
26182;DHT22;13927;51.534;11.866;2023-03-23T15:21:34;17.00;99.90
26182;DHT22;13927;51.534;11.866;2023-03-23T15:27:27;16.90;99.90
26182;DHT22;13927;51.534;11.866;2023-03-23T15:29:58;16.80;99.90
26182;DHT22;13927;51.534;11.866;2023-03-23T15:32:37;16.50;99.90
26182;DHT22;13927;51.534;11.866;2023-03-23T15:35:20;16.10;99.90
26182;DHT22;13927;51.534;11.866;2023-03-23T15:37:49;15.70;99.90
26182;DHT22;13927;51.534;11.866;2023-03-23T15:40:18;15.50;99.90
26182;DHT22;13927;51.534;11.866;2023-03-23T15:42:49;15.30;99.90
26182;DHT22;13927;51.534;11.866;2023-03-23T15:45:20;15.20;99.90
26182;DHT22;13927;51.534;11.866;2023-03-23T15:47:49;15.10;99.90
26182;DHT22;13927;51.534;11.866;2023-03-23T15:50:16;15.10;99.90
26182;DHT22;13927;51.534;11.866;2023-03-23T15:52:51;15.10;99.90
26182;DHT22;13927;51.534;11.866;2023-03-23T15:57:54;15.10;99.90
26182;DHT22;13927;51.534;11.866;2023-03-23T16:00:25;15.10;99.90
26182;DHT22;13927;51.534;11.866;2023-03-23T16:02:56;15.10;99.90
26182;DHT22;13927;51.534;11.866;2023-03-23T16:05:25;15.10;99.90
26182;DHT22;13927;51.534;11.866;2023-03-23T16:07:52;15.10;99.90
26182;DHT22;13927;51.534;11.866;2023-03-23T16:10:19;15.10;99.90
26182;DHT22;13927;51.534;11.866;2023-03-23T16:12:46;15.10;99.90
26182;DHT22;13927;51.534;11.866;2023-03-23T16:15:12;15.10;99.90
26182;DHT22;13927;51.534;11.866;2023-03-23T16:17:39;15.10;99.90
26182;DHT22;13927;51.534;11.866;2023-03-23T16:20:09;15.10;99.90
26182;DHT22;13927;51.534;11.866;2023-03-23T16:22:37;15.00;99.90
26182;DHT22;13927;51.534;11.866;2023-03-23T16:25:02;15.00;99.90
26182;DHT22;13927;51.534;11.866;2023-03-23T16:27:29;15.00;99.90
26182;DHT22;13927;51.534;11.866;2023-03-23T16:29:55;15.00;99.90
26182;DHT22;13927;51.534;11.866;2023-03-23T16:32:21;15.00;99.90
26182;DHT22;13927;51.534;11.866;2023-03-23T16:34:47;15.00;99.90
26182;DHT22;13927;51.534;11.866;2023-03-23T16:37:13;15.10;99.90
26182;DHT22;13927;51.534;11.866;2023-03-23T16:39:38;15.10;99.90
26182;DHT22;13927;51.534;11.866;2023-03-23T16:42:04;15.10;99.90
26182;DHT22;13927;51.534;11.866;2023-03-23T16:44:30;15.10;99.90
26182;DHT22;13927;51.534;11.866;2023-03-23T16:46:55;15.10;99.90
26182;DHT22;13927;51.534;11.866;2023-03-23T16:49:21;15.00;99.90
26182;DHT22;13927;51.534;11.866;2023-03-23T16:51:46;14.90;99.90
26182;DHT22;13927;51.534;11.866;2023-03-23T16:54:12;14.80;99.90
26182;DHT22;13927;51.534;11.866;2023-03-23T16:56:38;14.70;99.90
26182;DHT22;13927;51.534;11.866;2023-03-23T16:59:03;14.60;99.90
26182;DHT22;13927;51.534;11.866;2023-03-23T17:01:29;14.50;99.90
26182;DHT22;13927;51.534;11.866;2023-03-23T17:03:55;14.50;99.90
26182;DHT22;13927;51.534;11.866;2023-03-23T17:06:20;14.40;99.90
26182;DHT22;13927;51.534;11.866;2023-03-23T17:08:46;14.30;99.90
26182;DHT22;13927;51.534;11.866;2023-03-23T17:11:12;14.20;99.90
26182;DHT22;13927;51.534;11.866;2023-03-23T17:13:37;14.10;99.90
26182;DHT22;13927;51.534;11.866;2023-03-23T17:16:03;14.10;99.90
26182;DHT22;13927;51.534;11.866;2023-03-23T17:18:29;14.10;99.90
26182;DHT22;13927;51.534;11.866;2023-03-23T17:20:55;14.00;99.90
26182;DHT22;13927;51.534;11.866;2023-03-23T17:23:21;14.00;99.90
26182;DHT22;13927;51.534;11.866;2023-03-23T17:25:47;14.00;99.90
26182;DHT22;13927;51.534;11.866;2023-03-23T17:28:12;14.00;99.90
26182;DHT22;13927;51.534;11.866;2023-03-23T17:30:38;14.00;99.90
26182;DHT22;13927;51.534;11.866;2023-03-23T17:33:05;14.10;99.90
26182;DHT22;13927;51.534;11.866;2023-03-23T17:35:31;14.10;99.90
26182;DHT22;13927;51.534;11.866;2023-03-23T17:37:56;14.10;99.90
26182;DHT22;13927;51.534;11.866;2023-03-23T17:40:22;14.10;99.90
26182;DHT22;13927;51.534;11.866;2023-03-23T17:42:48;14.10;99.90
26182;DHT22;13927;51.534;11.866;2023-03-23T17:45:15;14.10;99.90
26182;DHT22;13927;51.534;11.866;2023-03-23T17:47:40;14.20;99.90
26182;DHT22;13927;51.534;11.866;2023-03-23T17:50:07;14.10;99.90
26182;DHT22;13927;51.534;11.866;2023-03-23T17:52:33;14.10;99.90
26182;DHT22;13927;51.534;11.866;2023-03-23T17:54:59;14.00;99.90
26182;DHT22;13927;51.534;11.866;2023-03-23T17:57:24;14.00;99.90
26182;DHT22;13927;51.534;11.866;2023-03-23T17:59:50;13.90;99.90
26182;DHT22;13927;51.534;11.866;2023-03-23T18:02:16;13.90;99.90
26182;DHT22;13927;51.534;11.866;2023-03-23T18:04:44;13.90;99.90
26182;DHT22;13927;51.534;11.866;2023-03-23T18:07:11;13.80;99.90
26182;DHT22;13927;51.534;11.866;2023-03-23T18:09:37;13.80;99.90
26182;DHT22;13927;51.534;11.866;2023-03-23T18:12:03;13.60;99.90
26182;DHT22;13927;51.534;11.866;2023-03-23T18:14:29;13.60;99.90
26182;DHT22;13927;51.534;11.866;2023-03-23T18:16:55;13.60;99.90
26182;DHT22;13927;51.534;11.866;2023-03-23T18:19:21;13.50;99.90
26182;DHT22;13927;51.534;11.866;2023-03-23T18:21:47;13.50;99.90
26182;DHT22;13927;51.534;11.866;2023-03-23T18:24:12;13.40;99.90
26182;DHT22;13927;51.534;11.866;2023-03-23T18:26:38;13.40;99.90
26182;DHT22;13927;51.534;11.866;2023-03-23T18:29:05;13.30;99.90
26182;DHT22;13927;51.534;11.866;2023-03-23T18:31:30;13.40;99.90
26182;DHT22;13927;51.534;11.866;2023-03-23T18:33:57;13.30;99.90
26182;DHT22;13927;51.534;11.866;2023-03-23T18:36:23;13.30;99.90
26182;DHT22;13927;51.534;11.866;2023-03-23T18:38:52;13.30;99.90
26182;DHT22;13927;51.534;11.866;2023-03-23T18:41:19;13.30;99.90
26182;DHT22;13927;51.534;11.866;2023-03-23T18:43:45;13.30;99.90
26182;DHT22;13927;51.534;11.866;2023-03-23T18:46:10;13.30;99.90
26182;DHT22;13927;51.534;11.866;2023-03-23T18:48:36;13.30;99.90
26182;DHT22;13927;51.534;11.866;2023-03-23T18:51:02;13.30;99.90
26182;DHT22;13927;51.534;11.866;2023-03-23T18:53:28;13.20;99.90
26182;DHT22;13927;51.534;11.866;2023-03-23T18:56:04;13.20;99.90
26182;DHT22;13927;51.534;11.866;2023-03-23T18:58:38;13.20;99.90
26182;DHT22;13927;51.534;11.866;2023-03-23T19:01:05;13.20;99.90
26182;DHT22;13927;51.534;11.866;2023-03-23T19:03:34;13.10;99.90
26182;DHT22;13927;51.534;11.866;2023-03-23T19:06:00;13.10;99.90
26182;DHT22;13927;51.534;11.866;2023-03-23T19:08:27;13.10;99.90
26182;DHT22;13927;51.534;11.866;2023-03-23T19:10:59;13.10;99.90
26182;DHT22;13927;51.534;11.866;2023-03-23T19:13:26;13.10;99.90
26182;DHT22;13927;51.534;11.866;2023-03-23T19:15:53;13.10;99.90
26182;DHT22;13927;51.534;11.866;2023-03-23T19:18:19;13.10;99.90
26182;DHT22;13927;51.534;11.866;2023-03-23T19:20:45;13.00;99.90
26182;DHT22;13927;51.534;11.866;2023-03-23T19:23:12;13.00;99.90
26182;DHT22;13927;51.534;11.866;2023-03-23T19:25:38;13.00;99.90
26182;DHT22;13927;51.534;11.866;2023-03-23T19:28:03;13.00;99.90
26182;DHT22;13927;51.534;11.866;2023-03-23T19:30:29;12.90;99.90
26182;DHT22;13927;51.534;11.866;2023-03-23T19:32:55;12.90;99.90
26182;DHT22;13927;51.534;11.866;2023-03-23T19:35:20;12.90;99.90
26182;DHT22;13927;51.534;11.866;2023-03-23T19:37:46;12.80;99.90
26182;DHT22;13927;51.534;11.866;2023-03-23T19:40:12;12.80;99.90
26182;DHT22;13927;51.534;11.866;2023-03-23T19:42:39;12.80;99.90
26182;DHT22;13927;51.534;11.866;2023-03-23T19:45:06;12.80;99.90
26182;DHT22;13927;51.534;11.866;2023-03-23T19:47:36;12.80;99.90
26182;DHT22;13927;51.534;11.866;2023-03-23T19:50:02;12.70;99.90
26182;DHT22;13927;51.534;11.866;2023-03-23T19:52:27;12.70;99.90
26182;DHT22;13927;51.534;11.866;2023-03-23T19:54:53;12.70;99.90
26182;DHT22;13927;51.534;11.866;2023-03-23T19:57:19;12.70;99.90
26182;DHT22;13927;51.534;11.866;2023-03-23T19:59:45;12.70;99.90
26182;DHT22;13927;51.534;11.866;2023-03-23T20:02:11;12.70;99.90
26182;DHT22;13927;51.534;11.866;2023-03-23T20:04:37;12.80;99.90
26182;DHT22;13927;51.534;11.866;2023-03-23T20:07:04;12.80;99.90
26182;DHT22;13927;51.534;11.866;2023-03-23T20:09:30;12.70;99.90
26182;DHT22;13927;51.534;11.866;2023-03-23T20:11:56;12.70;99.90
26182;DHT22;13927;51.534;11.866;2023-03-23T20:14:23;12.70;99.90
26182;DHT22;13927;51.534;11.866;2023-03-23T20:16:49;12.70;99.90
26182;DHT22;13927;51.534;11.866;2023-03-23T20:19:15;12.70;99.90